sensor_id;sensor_type;location;lat;lon;timestamp;pressure;altitude;pressure_sealevel;temperature;humidity
3668;BME280;24099;47.102;15.440;2023-05-07T00:02:04;97265.06;;;14.01;100.00
3668;BME280;24099;47.102;15.440;2023-05-07T00:04:32;97265.44;;;13.85;100.00
3668;BME280;24099;47.102;15.440;2023-05-07T00:07:04;97259.16;;;13.92;100.00
3668;BME280;24099;47.102;15.440;2023-05-07T00:09:32;97241.03;;;13.89;100.00
3668;BME280;24099;47.102;15.440;2023-05-07T00:12:03;97225.94;;;13.83;100.00
3668;BME280;24099;47.102;15.440;2023-05-07T00:14:31;97207.00;;;13.79;100.00
3668;BME280;24099;47.102;15.440;2023-05-07T00:17:00;97204.16;;;13.81;100.00
3668;BME280;24099;47.102;15.440;2023-05-07T00:19:35;97204.41;;;13.93;100.00
3668;BME280;24099;47.102;15.440;2023-05-07T00:22:03;97203.56;;;13.99;100.00
3668;BME280;24099;47.102;15.440;2023-05-07T00:24:33;97212.16;;;14.14;100.00
3668;BME280;24099;47.102;15.440;2023-05-07T00:27:06;97210.53;;;14.53;100.00
3668;BME280;24099;47.102;15.440;2023-05-07T00:29:34;97219.06;;;14.22;100.00
3668;BME280;24099;47.102;15.440;2023-05-07T00:32:04;97220.91;;;14.14;100.00
3668;BME280;24099;47.102;15.440;2023-05-07T00:34:32;97232.50;;;14.27;100.00
3668;BME280;24099;47.102;15.440;2023-05-07T00:37:00;97229.66;;;14.28;100.00
3668;BME280;24099;47.102;15.440;2023-05-07T00:39:31;97229.28;;;14.44;100.00
3668;BME280;24099;47.102;15.440;2023-05-07T00:41:59;97224.56;;;14.27;100.00
3668;BME280;24099;47.102;15.440;2023-05-07T00:44:27;97224.38;;;14.15;100.00
3668;BME280;24099;47.102;15.440;2023-05-07T00:46:56;97227.59;;;14.04;100.00
3668;BME280;24099;47.102;15.440;2023-05-07T00:49:35;97231.47;;;13.95;100.00
3668;BME280;24099;47.102;15.440;2023-05-07T00:52:05;97234.31;;;13.93;100.00
3668;BME280;24099;47.102;15.440;2023-05-07T00:57:24;97240.59;;;13.86;100.00
3668;BME280;24099;47.102;15.440;2023-05-07T00:59:53;97238.56;;;13.81;100.00
3668;BME280;24099;47.102;15.440;2023-05-07T01:02:21;97227.97;;;13.74;100.00
3668;BME280;24099;47.102;15.440;2023-05-07T01:04:50;97231.66;;;13.87;100.00
3668;BME280;24099;47.102;15.440;2023-05-07T01:07:19;97233.09;;;14.02;100.00
3668;BME280;24099;47.102;15.440;2023-05-07T01:09:49;97231.06;;;13.98;100.00
3668;BME280;24099;47.102;15.440;2023-05-07T01:12:17;97233.88;;;13.76;100.00
3668;BME280;24099;47.102;15.440;2023-05-07T01:14:45;97222.28;;;13.84;100.00
3668;BME280;24099;47.102;15.440;2023-05-07T01:17:15;97226.16;;;13.75;100.00
3668;BME280;24099;47.102;15.440;2023-05-07T01:19:43;97227.78;;;13.76;100.00
3668;BME280;24099;47.102;15.440;2023-05-07T01:22:24;97220.25;;;13.73;100.00
3668;BME280;24099;47.102;15.440;2023-05-07T01:24:56;97221.00;;;13.54;100.00
3668;BME280;24099;47.102;15.440;2023-05-07T01:27:27;97211.06;;;13.69;100.00
3668;BME280;24099;47.102;15.440;2023-05-07T01:29:56;97210.41;;;13.60;100.00
3668;BME280;24099;47.102;15.440;2023-05-07T01:32:29;97206.91;;;13.33;100.00
3668;BME280;24099;47.102;15.440;2023-05-07T01:35:01;97204.13;;;13.61;100.00
3668;BME280;24099;47.102;15.440;2023-05-07T01:37:31;97210.81;;;13.03;100.00
3668;BME280;24099;47.102;15.440;2023-05-07T01:40:00;97212.34;;;13.25;100.00
3668;BME280;24099;47.102;15.440;2023-05-07T01:42:32;97207.44;;;13.16;100.00
3668;BME280;24099;47.102;15.440;2023-05-07T01:45:00;97214.81;;;12.92;100.00
3668;BME280;24099;47.102;15.440;2023-05-07T01:47:31;97201.75;;;12.84;100.00
3668;BME280;24099;47.102;15.440;2023-05-07T01:50:01;97203.03;;;12.60;100.00
3668;BME280;24099;47.102;15.440;2023-05-07T01:52:30;97210.69;;;12.76;100.00
3668;BME280;24099;47.102;15.440;2023-05-07T01:55:01;97206.91;;;12.92;100.00
3668;BME280;24099;47.102;15.440;2023-05-07T01:57:33;97217.88;;;12.61;100.00
3668;BME280;24099;47.102;15.440;2023-05-07T02:00:01;97210.81;;;12.68;100.00
3668;BME280;24099;47.102;15.440;2023-05-07T02:02:41;97211.84;;;12.39;100.00
3668;BME280;24099;47.102;15.440;2023-05-07T02:05:19;97205.75;;;12.11;100.00
3668;BME280;24099;47.102;15.440;2023-05-07T02:07:56;97207.88;;;12.01;100.00
3668;BME280;24099;47.102;15.440;2023-05-07T02:10:25;97213.25;;;12.35;100.00
3668;BME280;24099;47.102;15.440;2023-05-07T02:12:53;97206.47;;;11.98;100.00
3668;BME280;24099;47.102;15.440;2023-05-07T02:15:24;97206.56;;;11.90;100.00
3668;BME280;24099;47.102;15.440;2023-05-07T02:18:02;97194.78;;;11.86;100.00
3668;BME280;24099;47.102;15.440;2023-05-07T02:20:31;97197.56;;;11.78;100.00
3668;BME280;24099;47.102;15.440;2023-05-07T02:23:01;97197.06;;;11.74;100.00
3668;BME280;24099;47.102;15.440;2023-05-07T02:25:30;97207.72;;;11.66;100.00
3668;BME280;24099;47.102;15.440;2023-05-07T02:27:58;97211.38;;;11.65;100.00
3668;BME280;24099;47.102;15.440;2023-05-07T02:30:45;97214.22;;;11.85;100.00
3668;BME280;24099;47.102;15.440;2023-05-07T02:33:16;97215.94;;;11.93;100.00
3668;BME280;24099;47.102;15.440;2023-05-07T02:35:44;97212.56;;;11.78;100.00
3668;BME280;24099;47.102;15.440;2023-05-07T02:38:15;97207.84;;;11.94;100.00
3668;BME280;24099;47.102;15.440;2023-05-07T02:40:44;97209.22;;;11.90;100.00
3668;BME280;24099;47.102;15.440;2023-05-07T02:43:20;97202.81;;;11.63;100.00
3668;BME280;24099;47.102;15.440;2023-05-07T02:45:49;97198.94;;;11.59;100.00
3668;BME280;24099;47.102;15.440;2023-05-07T02:48:17;97206.41;;;11.56;100.00
3668;BME280;24099;47.102;15.440;2023-05-07T02:50:46;97201.44;;;11.46;100.00
3668;BME280;24099;47.102;15.440;2023-05-07T02:53:16;97195.88;;;11.56;100.00
3668;BME280;24099;47.102;15.440;2023-05-07T02:55:44;97193.91;;;11.64;100.00
3668;BME280;24099;47.102;15.440;2023-05-07T02:58:18;97197.56;;;11.78;100.00
3668;BME280;24099;47.102;15.440;2023-05-07T03:00:47;97196.94;;;11.61;100.00
3668;BME280;24099;47.102;15.440;2023-05-07T03:03:26;97200.16;;;11.42;100.00
3668;BME280;24099;47.102;15.440;2023-05-07T03:05:54;97202.81;;;11.63;100.00
3668;BME280;24099;47.102;15.440;2023-05-07T03:08:24;97208.75;;;11.29;100.00
3668;BME280;24099;47.102;15.440;2023-05-07T03:10:52;97205.03;;;11.24;100.00
3668;BME280;24099;47.102;15.440;2023-05-07T03:13:20;97205.34;;;11.14;100.00
3668;BME280;24099;47.102;15.440;2023-05-07T03:15:52;97204.88;;;11.11;100.00
3668;BME280;24099;47.102;15.440;2023-05-07T03:18:21;97211.97;;;11.10;100.00
3668;BME280;24099;47.102;15.440;2023-05-07T03:20:49;97220.59;;;11.19;100.00
3668;BME280;24099;47.102;15.440;2023-05-07T03:23:18;97213.25;;;10.99;100.00
3668;BME280;24099;47.102;15.440;2023-05-07T03:25:47;97212.97;;;10.80;100.00
3668;BME280;24099;47.102;15.440;2023-05-07T03:28:15;97217.72;;;10.84;100.00
3668;BME280;24099;47.102;15.440;2023-05-07T03:30:48;97216.38;;;11.24;100.00
3668;BME280;24099;47.102;15.440;2023-05-07T03:33:16;97222.31;;;11.12;100.00
3668;BME280;24099;47.102;15.440;2023-05-07T03:35:45;97224.31;;;11.10;100.00
3668;BME280;24099;47.102;15.440;2023-05-07T03:38:18;97219.63;;;10.90;100.00
3668;BME280;24099;47.102;15.440;2023-05-07T03:40:47;97221.78;;;10.87;100.00
3668;BME280;24099;47.102;15.440;2023-05-07T03:43:15;97231.63;;;10.78;100.00
3668;BME280;24099;47.102;15.440;2023-05-07T03:45:49;97228.25;;;10.84;100.00
3668;BME280;24099;47.102;15.440;2023-05-07T03:48:21;97233.69;;;10.97;100.00
3668;BME280;24099;47.102;15.440;2023-05-07T03:50:55;97240.94;;;11.10;100.00
3668;BME280;24099;47.102;15.440;2023-05-07T03:53:25;97235.59;;;11.03;100.00
3668;BME280;24099;47.102;15.440;2023-05-07T03:55:53;97241.41;;;10.84;100.00
3668;BME280;24099;47.102;15.440;2023-05-07T03:58:21;97246.59;;;10.92;100.00
3668;BME280;24099;47.102;15.440;2023-05-07T04:00:50;97242.59;;;10.82;100.00
3668;BME280;24099;47.102;15.440;2023-05-07T04:03:24;97241.03;;;10.87;100.00
3668;BME280;24099;47.102;15.440;2023-05-07T04:05:52;97257.03;;;10.86;100.00
3668;BME280;24099;47.102;15.440;2023-05-07T04:08:20;97258.19;;;10.83;100.00
3668;BME280;24099;47.102;15.440;2023-05-07T04:10:56;97262.03;;;10.95;100.00
3668;BME280;24099;47.102;15.440;2023-05-07T04:13:27;97248.22;;;10.93;100.00
3668;BME280;24099;47.102;15.440;2023-05-07T04:15:56;97260.09;;;11.04;100.00
3668;BME280;24099;47.102;15.440;2023-05-07T04:18:24;97266.66;;;10.93;100.00
3668;BME280;24099;47.102;15.440;2023-05-07T04:20:52;97257.66;;;11.02;100.00
3668;BME280;24099;47.102;15.440;2023-05-07T04:23:21;97261.53;;;11.21;100.00
3668;BME280;24099;47.102;15.440;2023-05-07T04:25:49;97269.84;;;11.18;100.00
3668;BME280;24099;47.102;15.440;2023-05-07T04:28:26;97268.75;;;11.13;100.00
3668;BME280;24099;47.102;15.440;2023-05-07T04:30:54;97274.06;;;11.19;100.00
3668;BME280;24099;47.102;15.440;2023-05-07T04:33:22;97269.19;;;11.16;100.00
3668;BME280;24099;47.102;15.440;2023-05-07T04:35:51;97276.81;;;11.26;100.00
3668;BME280;24099;47.102;15.440;2023-05-07T04:38:18;97282.72;;;11.28;100.00
3668;BME280;24099;47.102;15.440;2023-05-07T04:40:49;97285.41;;;11.49;100.00
3668;BME280;24099;47.102;15.440;2023-05-07T04:43:21;97282.50;;;11.44;100.00
3668;BME280;24099;47.102;15.440;2023-05-07T04:45:52;97278.47;;;11.63;100.00
3668;BME280;24099;47.102;15.440;2023-05-07T04:48:22;97287.31;;;11.40;100.00
3668;BME280;24099;47.102;15.440;2023-05-07T04:50:52;97292.41;;;11.42;100.00
3668;BME280;24099;47.102;15.440;2023-05-07T04:53:21;97297.03;;;11.55;100.00
3668;BME280;24099;47.102;15.440;2023-05-07T04:55:55;97289.28;;;11.68;100.00
3668;BME280;24099;47.102;15.440;2023-05-07T04:58:25;97285.09;;;11.73;100.00
3668;BME280;24099;47.102;15.440;2023-05-07T05:00:56;97296.16;;;11.84;100.00
3668;BME280;24099;47.102;15.440;2023-05-07T05:03:24;97296.69;;;11.94;100.00
3668;BME280;24099;47.102;15.440;2023-05-07T05:05:51;97290.34;;;12.10;100.00
3668;BME280;24099;47.102;15.440;2023-05-07T05:08:22;97295.31;;;12.19;100.00
3668;BME280;24099;47.102;15.440;2023-05-07T05:10:51;97304.81;;;12.35;100.00
3668;BME280;24099;47.102;15.440;2023-05-07T05:13:19;97309.66;;;12.31;100.00
3668;BME280;24099;47.102;15.440;2023-05-07T05:15:47;97310.09;;;12.35;100.00
3668;BME280;24099;47.102;15.440;2023-05-07T05:18:17;97316.59;;;12.39;100.00
3668;BME280;24099;47.102;15.440;2023-05-07T05:20:45;97315.84;;;12.45;100.00
3668;BME280;24099;47.102;15.440;2023-05-07T05:23:13;97318.38;;;12.53;100.00
3668;BME280;24099;47.102;15.440;2023-05-07T05:25:40;97318.41;;;12.60;100.00
3668;BME280;24099;47.102;15.440;2023-05-07T05:28:11;97316.16;;;12.57;100.00
3668;BME280;24099;47.102;15.440;2023-05-07T05:30:39;97322.09;;;12.59;100.00
3668;BME280;24099;47.102;15.440;2023-05-07T05:33:08;97320.38;;;12.79;100.00
3668;BME280;24099;47.102;15.440;2023-05-07T05:35:37;97329.56;;;12.83;100.00
3668;BME280;24099;47.102;15.440;2023-05-07T05:38:11;97333.22;;;12.82;100.00
3668;BME280;24099;47.102;15.440;2023-05-07T05:40:40;97330.88;;;12.94;100.00
3668;BME280;24099;47.102;15.440;2023-05-07T05:43:08;97339.44;;;13.02;100.00
3668;BME280;24099;47.102;15.440;2023-05-07T05:45:37;97345.41;;;13.11;100.00
3668;BME280;24099;47.102;15.440;2023-05-07T05:48:06;97341.56;;;13.14;100.00
3668;BME280;24099;47.102;15.440;2023-05-07T05:50:34;97332.06;;;13.19;100.00
3668;BME280;24099;47.102;15.440;2023-05-07T05:53:05;97349.22;;;13.30;100.00
3668;BME280;24099;47.102;15.440;2023-05-07T05:55:33;97342.94;;;13.31;100.00
3668;BME280;24099;47.102;15.440;2023-05-07T05:58:01;97342.31;;;13.29;100.00
3668;BME280;24099;47.102;15.440;2023-05-07T06:00:32;97343.19;;;13.42;100.00
3668;BME280;24099;47.102;15.440;2023-05-07T06:03:03;97342.75;;;13.39;100.00
3668;BME280;24099;47.102;15.440;2023-05-07T06:05:31;97331.22;;;13.47;100.00
3668;BME280;24099;47.102;15.440;2023-05-07T06:07:59;97338.13;;;13.48;100.00
3668;BME280;24099;47.102;15.440;2023-05-07T06:10:32;97333.44;;;13.43;100.00
3668;BME280;24099;47.102;15.440;2023-05-07T06:13:00;97329.53;;;13.39;100.00
3668;BME280;24099;47.102;15.440;2023-05-07T06:15:29;97337.16;;;13.55;100.00
3668;BME280;24099;47.102;15.440;2023-05-07T06:18:03;97334.59;;;13.75;100.00
3668;BME280;24099;47.102;15.440;2023-05-07T06:20:35;97328.72;;;13.86;100.00
3668;BME280;24099;47.102;15.440;2023-05-07T06:23:05;97327.09;;;13.85;100.00
3668;BME280;24099;47.102;15.440;2023-05-07T06:25:35;97324.44;;;13.85;100.00
3668;BME280;24099;47.102;15.440;2023-05-07T06:28:04;97315.38;;;14.21;100.00
3668;BME280;24099;47.102;15.440;2023-05-07T06:30:35;97335.16;;;14.18;100.00
3668;BME280;24099;47.102;15.440;2023-05-07T06:33:03;97327.44;;;14.36;100.00
3668;BME280;24099;47.102;15.440;2023-05-07T06:35:30;97329.66;;;14.26;100.00
3668;BME280;24099;47.102;15.440;2023-05-07T06:37:58;97320.50;;;14.35;100.00
3668;BME280;24099;47.102;15.440;2023-05-07T06:40:28;97327.22;;;14.31;100.00
3668;BME280;24099;47.102;15.440;2023-05-07T06:43:00;97321.13;;;14.37;100.00
3668;BME280;24099;47.102;15.440;2023-05-07T06:45:47;97322.00;;;14.58;100.00
3668;BME280;24099;47.102;15.440;2023-05-07T06:48:15;97321.38;;;14.69;100.00
3668;BME280;24099;47.102;15.440;2023-05-07T06:50:53;97321.78;;;14.72;100.00
3668;BME280;24099;47.102;15.440;2023-05-07T06:53:23;97322.59;;;14.86;100.00
3668;BME280;24099;47.102;15.440;2023-05-07T06:55:53;97331.16;;;14.88;100.00
3668;BME280;24099;47.102;15.440;2023-05-07T06:58:22;97335.22;;;14.97;100.00
3668;BME280;24099;47.102;15.440;2023-05-07T07:00:51;97333.75;;;15.28;100.00
3668;BME280;24099;47.102;15.440;2023-05-07T07:03:18;97341.94;;;15.13;100.00
3668;BME280;24099;47.102;15.440;2023-05-07T07:05:47;97332.31;;;15.25;100.00
3668;BME280;24099;47.102;15.440;2023-05-07T07:08:14;97328.88;;;15.18;100.00
3668;BME280;24099;47.102;15.440;2023-05-07T07:10:47;97333.53;;;15.36;100.00
3668;BME280;24099;47.102;15.440;2023-05-07T07:13:15;97325.50;;;15.69;100.00
3668;BME280;24099;47.102;15.440;2023-05-07T07:15:44;97320.38;;;15.74;100.00
3668;BME280;24099;47.102;15.440;2023-05-07T07:18:12;97299.47;;;15.91;100.00
3668;BME280;24099;47.102;15.440;2023-05-07T07:20:40;97289.78;;;16.03;100.00
3668;BME280;24099;47.102;15.440;2023-05-07T07:23:09;97283.59;;;16.15;100.00
3668;BME280;24099;47.102;15.440;2023-05-07T07:25:36;97277.28;;;16.10;100.00
3668;BME280;24099;47.102;15.440;2023-05-07T07:28:05;97286.13;;;16.35;100.00
3668;BME280;24099;47.102;15.440;2023-05-07T07:30:33;97291.88;;;16.26;100.00
3668;BME280;24099;47.102;15.440;2023-05-07T07:33:03;97283.88;;;16.32;100.00
3668;BME280;24099;47.102;15.440;2023-05-07T07:35:35;97285.91;;;16.37;100.00
3668;BME280;24099;47.102;15.440;2023-05-07T07:38:05;97271.03;;;16.29;100.00
3668;BME280;24099;47.102;15.440;2023-05-07T07:40:34;97270.72;;;16.44;100.00
3668;BME280;24099;47.102;15.440;2023-05-07T07:43:04;97267.09;;;16.63;100.00
3668;BME280;24099;47.102;15.440;2023-05-07T07:45:33;97254.41;;;16.65;100.00
3668;BME280;24099;47.102;15.440;2023-05-07T07:48:02;97247.94;;;16.54;100.00
3668;BME280;24099;47.102;15.440;2023-05-07T07:50:34;97247.06;;;16.61;100.00
3668;BME280;24099;47.102;15.440;2023-05-07T07:53:02;97237.47;;;16.84;100.00
3668;BME280;24099;47.102;15.440;2023-05-07T07:55:30;97230.84;;;16.94;100.00
3668;BME280;24099;47.102;15.440;2023-05-07T07:58:00;97241.28;;;17.13;100.00
3668;BME280;24099;47.102;15.440;2023-05-07T08:00:28;97254.94;;;17.35;100.00
3668;BME280;24099;47.102;15.440;2023-05-07T08:02:57;97242.44;;;17.36;100.00
3668;BME280;24099;47.102;15.440;2023-05-07T08:05:30;97229.66;;;17.26;100.00
3668;BME280;24099;47.102;15.440;2023-05-07T08:08:00;97235.72;;;17.33;100.00
3668;BME280;24099;47.102;15.440;2023-05-07T08:10:32;97231.66;;;17.12;100.00
3668;BME280;24099;47.102;15.440;2023-05-07T08:13:06;97226.47;;;17.54;100.00
3668;BME280;24099;47.102;15.440;2023-05-07T08:15:36;97229.13;;;17.72;100.00
3668;BME280;24099;47.102;15.440;2023-05-07T08:18:04;97223.44;;;17.50;100.00
3668;BME280;24099;47.102;15.440;2023-05-07T08:20:35;97215.25;;;17.34;100.00
3668;BME280;24099;47.102;15.440;2023-05-07T08:23:07;97223.09;;;17.58;100.00
3668;BME280;24099;47.102;15.440;2023-05-07T08:25:34;97224.09;;;17.64;100.00
3668;BME280;24099;47.102;15.440;2023-05-07T08:28:05;97224.41;;;17.86;100.00
3668;BME280;24099;47.102;15.440;2023-05-07T08:30:33;97214.66;;;17.80;100.00
3668;BME280;24099;47.102;15.440;2023-05-07T08:33:01;97208.03;;;18.12;100.00
3668;BME280;24099;47.102;15.440;2023-05-07T08:35:28;97203.47;;;17.89;100.00
3668;BME280;24099;47.102;15.440;2023-05-07T08:37:58;97200.22;;;17.87;100.00
3668;BME280;24099;47.102;15.440;2023-05-07T08:40:26;97198.28;;;18.06;100.00
3668;BME280;24099;47.102;15.440;2023-05-07T08:42:56;97194.66;;;18.54;100.00
3668;BME280;24099;47.102;15.440;2023-05-07T08:45:26;97180.72;;;18.29;100.00
3668;BME280;24099;47.102;15.440;2023-05-07T08:47:59;97188.75;;;18.64;100.00
3668;BME280;24099;47.102;15.440;2023-05-07T08:50:32;97189.91;;;18.56;100.00
3668;BME280;24099;47.102;15.440;2023-05-07T08:53:07;97184.47;;;18.74;100.00
3668;BME280;24099;47.102;15.440;2023-05-07T08:55:35;97173.44;;;18.94;100.00
3668;BME280;24099;47.102;15.440;2023-05-07T08:58:05;97175.56;;;19.20;100.00
3668;BME280;24099;47.102;15.440;2023-05-07T09:00:37;97175.38;;;19.10;100.00
3668;BME280;24099;47.102;15.440;2023-05-07T09:03:06;97170.09;;;18.75;100.00
3668;BME280;24099;47.102;15.440;2023-05-07T09:05:35;97169.13;;;19.05;100.00
3668;BME280;24099;47.102;15.440;2023-05-07T09:08:08;97162.34;;;19.25;100.00
3668;BME280;24099;47.102;15.440;2023-05-07T09:10:38;97165.63;;;19.44;100.00
3668;BME280;24099;47.102;15.440;2023-05-07T09:13:06;97168.19;;;19.11;100.00
3668;BME280;24099;47.102;15.440;2023-05-07T09:15:34;97172.59;;;19.05;100.00
3668;BME280;24099;47.102;15.440;2023-05-07T09:18:03;97167.38;;;19.10;100.00
3668;BME280;24099;47.102;15.440;2023-05-07T09:20:32;97163.41;;;19.13;100.00
3668;BME280;24099;47.102;15.440;2023-05-07T09:23:01;97158.63;;;19.26;100.00
3668;BME280;24099;47.102;15.440;2023-05-07T09:25:32;97170.66;;;19.69;100.00
3668;BME280;24099;47.102;15.440;2023-05-07T09:28:08;97156.28;;;19.87;100.00
3668;BME280;24099;47.102;15.440;2023-05-07T09:30:37;97157.84;;;19.43;100.00
3668;BME280;24099;47.102;15.440;2023-05-07T09:33:07;97160.28;;;19.16;100.00
3668;BME280;24099;47.102;15.440;2023-05-07T09:35:39;97165.56;;;18.87;100.00
3668;BME280;24099;47.102;15.440;2023-05-07T09:38:13;97161.63;;;19.30;100.00
3668;BME280;24099;47.102;15.440;2023-05-07T09:40:43;97164.13;;;19.77;100.00
3668;BME280;24099;47.102;15.440;2023-05-07T09:43:14;97155.53;;;19.58;100.00
3668;BME280;24099;47.102;15.440;2023-05-07T09:45:48;97148.75;;;19.84;100.00
3668;BME280;24099;47.102;15.440;2023-05-07T09:48:19;97155.34;;;19.93;100.00
3668;BME280;24099;47.102;15.440;2023-05-07T09:50:52;97159.84;;;19.76;100.00
3668;BME280;24099;47.102;15.440;2023-05-07T09:53:26;97147.22;;;20.05;100.00
3668;BME280;24099;47.102;15.440;2023-05-07T09:55:57;97160.03;;;20.03;100.00
3668;BME280;24099;47.102;15.440;2023-05-07T09:58:27;97160.13;;;19.22;100.00
3668;BME280;24099;47.102;15.440;2023-05-07T10:00:58;97166.84;;;19.37;100.00
3668;BME280;24099;47.102;15.440;2023-05-07T10:03:28;97149.38;;;19.57;100.00
3668;BME280;24099;47.102;15.440;2023-05-07T10:06:02;97150.00;;;20.10;100.00
3668;BME280;24099;47.102;15.440;2023-05-07T10:08:31;97141.59;;;20.18;100.00
3668;BME280;24099;47.102;15.440;2023-05-07T10:11:04;97143.53;;;20.56;100.00
3668;BME280;24099;47.102;15.440;2023-05-07T10:13:33;97143.16;;;19.85;100.00
3668;BME280;24099;47.102;15.440;2023-05-07T10:16:07;97142.47;;;20.79;100.00
3668;BME280;24099;47.102;15.440;2023-05-07T10:18:41;97134.50;;;20.84;100.00
3668;BME280;24099;47.102;15.440;2023-05-07T10:21:17;97128.56;;;20.77;100.00
3668;BME280;24099;47.102;15.440;2023-05-07T10:23:50;97136.31;;;20.56;100.00
3668;BME280;24099;47.102;15.440;2023-05-07T10:26:23;97140.28;;;20.54;100.00
3668;BME280;24099;47.102;15.440;2023-05-07T10:28:58;97131.66;;;20.69;100.00
3668;BME280;24099;47.102;15.440;2023-05-07T10:31:50;97120.41;;;21.32;100.00
3668;BME280;24099;47.102;15.440;2023-05-07T10:34:23;97124.72;;;20.34;100.00
3668;BME280;24099;47.102;15.440;2023-05-07T10:36:53;97122.59;;;20.36;100.00
3668;BME280;24099;47.102;15.440;2023-05-07T10:39:22;97111.91;;;20.53;100.00
3668;BME280;24099;47.102;15.440;2023-05-07T10:41:52;97118.53;;;20.67;100.00
3668;BME280;24099;47.102;15.440;2023-05-07T10:44:27;97113.97;;;20.68;100.00
3668;BME280;24099;47.102;15.440;2023-05-07T10:47:06;97110.94;;;21.03;100.00
3668;BME280;24099;47.102;15.440;2023-05-07T10:49:37;97115.13;;;21.15;100.00
3668;BME280;24099;47.102;15.440;2023-05-07T10:52:13;97104.81;;;21.51;100.00
3668;BME280;24099;47.102;15.440;2023-05-07T10:55:19;97117.13;;;21.52;100.00
3668;BME280;24099;47.102;15.440;2023-05-07T10:58:25;97098.91;;;21.81;100.00
3668;BME280;24099;47.102;15.440;2023-05-07T11:01:00;97102.59;;;22.02;100.00
3668;BME280;24099;47.102;15.440;2023-05-07T11:03:34;97098.03;;;22.02;100.00
3668;BME280;24099;47.102;15.440;2023-05-07T11:06:10;97089.41;;;22.32;100.00
3668;BME280;24099;47.102;15.440;2023-05-07T11:09:01;97089.94;;;21.97;100.00
3668;BME280;24099;47.102;15.440;2023-05-07T11:11:47;97095.19;;;22.14;100.00
3668;BME280;24099;47.102;15.440;2023-05-07T11:14:46;97097.25;;;21.21;100.00
3668;BME280;24099;47.102;15.440;2023-05-07T11:17:18;97087.25;;;21.65;100.00
3668;BME280;24099;47.102;15.440;2023-05-07T11:19:54;97088.00;;;21.60;100.00
3668;BME280;24099;47.102;15.440;2023-05-07T11:22:38;97077.78;;;21.52;100.00
3668;BME280;24099;47.102;15.440;2023-05-07T11:25:33;97087.72;;;21.08;100.00
3668;BME280;24099;47.102;15.440;2023-05-07T11:28:15;97087.13;;;21.50;100.00
3668;BME280;24099;47.102;15.440;2023-05-07T11:30:53;97091.16;;;21.25;100.00
3668;BME280;24099;47.102;15.440;2023-05-07T11:33:22;97091.13;;;21.79;100.00
3668;BME280;24099;47.102;15.440;2023-05-07T11:35:54;97084.94;;;21.79;100.00
3668;BME280;24099;47.102;15.440;2023-05-07T11:38:25;97081.41;;;22.37;100.00
3668;BME280;24099;47.102;15.440;2023-05-07T11:40:54;97080.53;;;22.26;100.00
3668;BME280;24099;47.102;15.440;2023-05-07T11:43:22;97076.81;;;22.32;100.00
3668;BME280;24099;47.102;15.440;2023-05-07T11:45:52;97076.03;;;21.41;100.00
3668;BME280;24099;47.102;15.440;2023-05-07T11:48:21;97066.44;;;22.04;100.00
3668;BME280;24099;47.102;15.440;2023-05-07T11:51:00;97066.63;;;21.39;100.00
3668;BME280;24099;47.102;15.440;2023-05-07T11:53:35;97064.81;;;21.71;100.00
3668;BME280;24099;47.102;15.440;2023-05-07T11:56:07;97061.94;;;21.83;100.00
3668;BME280;24099;47.102;15.440;2023-05-07T11:58:35;97062.03;;;21.61;100.00
3668;BME280;24099;47.102;15.440;2023-05-07T12:01:07;97061.72;;;22.68;100.00
3668;BME280;24099;47.102;15.440;2023-05-07T12:03:35;97059.63;;;22.81;100.00
3668;BME280;24099;47.102;15.440;2023-05-07T12:06:06;97054.13;;;23.13;100.00
3668;BME280;24099;47.102;15.440;2023-05-07T12:08:37;97063.78;;;23.09;100.00
3668;BME280;24099;47.102;15.440;2023-05-07T12:11:08;97067.16;;;22.84;100.00
3668;BME280;24099;47.102;15.440;2023-05-07T12:13:38;97060.00;;;23.05;100.00
3668;BME280;24099;47.102;15.440;2023-05-07T12:16:11;97068.66;;;22.64;99.97
3668;BME280;24099;47.102;15.440;2023-05-07T12:18:39;97067.63;;;22.71;100.00
3668;BME280;24099;47.102;15.440;2023-05-07T12:21:10;97065.94;;;22.59;100.00
3668;BME280;24099;47.102;15.440;2023-05-07T12:23:39;97070.00;;;22.62;100.00
3668;BME280;24099;47.102;15.440;2023-05-07T12:26:10;97070.84;;;22.67;100.00
3668;BME280;24099;47.102;15.440;2023-05-07T12:28:38;97062.00;;;22.72;100.00
3668;BME280;24099;47.102;15.440;2023-05-07T12:31:07;97066.47;;;22.51;100.00
3668;BME280;24099;47.102;15.440;2023-05-07T12:33:36;97075.88;;;22.54;98.21
3668;BME280;24099;47.102;15.440;2023-05-07T12:36:06;97067.16;;;22.31;100.00
3668;BME280;24099;47.102;15.440;2023-05-07T12:38:38;97071.63;;;22.21;100.00
3668;BME280;24099;47.102;15.440;2023-05-07T12:41:08;97068.94;;;22.16;100.00
3668;BME280;24099;47.102;15.440;2023-05-07T12:43:36;97084.88;;;21.42;100.00
3668;BME280;24099;47.102;15.440;2023-05-07T12:46:05;97084.88;;;21.69;100.00
3668;BME280;24099;47.102;15.440;2023-05-07T12:48:35;97089.97;;;21.16;100.00
3668;BME280;24099;47.102;15.440;2023-05-07T12:51:03;97089.34;;;21.09;100.00
3668;BME280;24099;47.102;15.440;2023-05-07T12:53:32;97098.78;;;21.39;100.00
3668;BME280;24099;47.102;15.440;2023-05-07T12:56:00;97096.81;;;21.29;100.00
3668;BME280;24099;47.102;15.440;2023-05-07T12:58:28;97103.88;;;21.18;100.00
3668;BME280;24099;47.102;15.440;2023-05-07T13:00:58;97131.00;;;20.78;100.00
3668;BME280;24099;47.102;15.440;2023-05-07T13:03:28;97137.88;;;20.74;100.00
3668;BME280;24099;47.102;15.440;2023-05-07T13:05:59;97153.09;;;19.45;100.00
3668;BME280;24099;47.102;15.440;2023-05-07T13:08:29;97177.28;;;19.38;100.00
3668;BME280;24099;47.102;15.440;2023-05-07T13:11:00;97179.59;;;19.35;100.00
3668;BME280;24099;47.102;15.440;2023-05-07T13:13:29;97206.53;;;19.21;100.00